Komatsu Air Base, Japan

10:48 AM JST on January 26, 2015 (GMT +0900)
Komatsu | Change Station
CLOSE
Current Station
Airport
Location: Komatsu AB,
Elevation: 30 ft
Nearby Weather Stations

Elev 30 ft 36.39 °N, 136.41 °E | Updated 48 minutes ago

Mostly Cloudy
Mostly Cloudy
55 °F
Feels Like 55 °F
N
9
Wind Variable Wind from SSE

Today
High -- | Low -- °F
--% Chance of Precip.
Yesterday
High -- | Low -- °F
Precip. -- in
7:00 AM 5:13 PM
Waxing Crescent, 38% visible
Pressure 30.15 in
Visibility 6.2 miles
Clouds Few 7000 ft
Scattered Clouds 10000 ft
Mostly Cloudy 16000 ft
Dew Point 37 °F
Humidity 51%
Rainfall 0.00 in
Snow Depth Not available.
UV 1 out of 12
Pollen Not available.
Air Quality Not available.
Flu Activity Not available.
METAR RJNK 260100Z 16008KT 9999 FEW070 SCT100 BKN160 13/03 Q1021

More Conditions Fewer Conditions

Pressure 30.15 in
Visibility 6.2 miles
Clouds Few 7000 ft
Scattered Clouds 10000 ft
Mostly Cloudy 16000 ft
Dew Point 37 °F
Humidity 51%
Rainfall 0.00 in
Snow Depth Not available.
UV 1 out of 12
Pollen Not available.
Air Quality Not available.
Flu Activity Not available.
METAR RJNK 260100Z 16008KT 9999 FEW070 SCT100 BKN160 13/03 Q1021

More Conditions Fewer Conditions

10-Day Weather Forecast

Almanac

Astronomy

Jan. 26, 2015 Rise Set
Actual Time
Civil Twilight
Nautical Twilight
Astronomical Twilight
Moon
Length of Visible Light
Length of Day
Tomorrow will be .
, % of the Moon is Illuminated

Today's Extremes

Country Highs Country Lows

Community

WunderPhotos

Upload Photos

1,790,045 photos uploaded!

WunderBlogs® & News

Nearby

Air Quality

  Air Quality AQ Index Pollutant
Not available.

Snow Depth

Station Depth Elevation

Earthquake Activity

City Distance Mag. Time & Date
Minimum magnitude displayed is 2.5.

Coastal Water Temperatures

Place Temperature

Nearby Weather Stations